sensor_id;sensor_type;location;lat;lon;timestamp;temperature;humidity
76168;DHT22;64927;48.214;16.378;2023-04-03T00:00:43;7.80;55.70
76168;DHT22;64927;48.214;16.378;2023-04-03T00:03:08;7.80;56.10
76168;DHT22;64927;48.214;16.378;2023-04-03T00:05:34;7.80;55.90
76168;DHT22;64927;48.214;16.378;2023-04-03T00:08:00;7.80;56.10
76168;DHT22;64927;48.214;16.378;2023-04-03T00:10:28;8.00;55.90
76168;DHT22;64927;48.214;16.378;2023-04-03T00:12:53;8.00;55.30
76168;DHT22;64927;48.214;16.378;2023-04-03T00:15:19;7.90;55.80
76168;DHT22;64927;48.214;16.378;2023-04-03T00:17:45;8.00;55.80
76168;DHT22;64927;48.214;16.378;2023-04-03T00:20:11;8.10;55.50
76168;DHT22;64927;48.214;16.378;2023-04-03T00:22:37;8.00;55.50
76168;DHT22;64927;48.214;16.378;2023-04-03T00:25:03;8.10;55.40
76168;DHT22;64927;48.214;16.378;2023-04-03T00:27:29;8.10;55.30
76168;DHT22;64927;48.214;16.378;2023-04-03T00:29:55;8.10;55.20
76168;DHT22;64927;48.214;16.378;2023-04-03T00:32:20;8.00;55.10
76168;DHT22;64927;48.214;16.378;2023-04-03T00:34:48;8.00;55.60
76168;DHT22;64927;48.214;16.378;2023-04-03T00:37:14;8.00;55.80
76168;DHT22;64927;48.214;16.378;2023-04-03T00:39:40;8.20;55.60
76168;DHT22;64927;48.214;16.378;2023-04-03T00:42:06;8.00;55.60
76168;DHT22;64927;48.214;16.378;2023-04-03T00:47:01;8.00;55.60
76168;DHT22;64927;48.214;16.378;2023-04-03T00:49:29;7.90;56.00
76168;DHT22;64927;48.214;16.378;2023-04-03T00:51:55;7.90;56.40
76168;DHT22;64927;48.214;16.378;2023-04-03T00:54:22;7.90;56.10
76168;DHT22;64927;48.214;16.378;2023-04-03T00:56:49;7.80;56.40
76168;DHT22;64927;48.214;16.378;2023-04-03T00:59:22;7.80;56.80
76168;DHT22;64927;48.214;16.378;2023-04-03T01:01:52;7.80;56.60
76168;DHT22;64927;48.214;16.378;2023-04-03T01:06:56;7.90;56.40
76168;DHT22;64927;48.214;16.378;2023-04-03T01:09:23;7.80;56.50
76168;DHT22;64927;48.214;16.378;2023-04-03T01:11:49;7.70;57.30
76168;DHT22;64927;48.214;16.378;2023-04-03T01:14:14;7.80;57.40
76168;DHT22;64927;48.214;16.378;2023-04-03T01:16:40;7.80;57.20
76168;DHT22;64927;48.214;16.378;2023-04-03T01:19:14;7.80;57.20
76168;DHT22;64927;48.214;16.378;2023-04-03T01:22:05;7.80;57.20
76168;DHT22;64927;48.214;16.378;2023-04-03T01:24:40;7.80;57.40
76168;DHT22;64927;48.214;16.378;2023-04-03T01:27:07;7.70;57.20
76168;DHT22;64927;48.214;16.378;2023-04-03T01:29:35;7.90;57.00
76168;DHT22;64927;48.214;16.378;2023-04-03T01:32:02;7.90;57.00
76168;DHT22;64927;48.214;16.378;2023-04-03T01:34:29;8.00;56.60
76168;DHT22;64927;48.214;16.378;2023-04-03T01:36:55;8.10;56.40
76168;DHT22;64927;48.214;16.378;2023-04-03T01:39:21;8.20;56.30
76168;DHT22;64927;48.214;16.378;2023-04-03T01:41:47;8.10;56.10
76168;DHT22;64927;48.214;16.378;2023-04-03T01:44:13;7.90;56.30
76168;DHT22;64927;48.214;16.378;2023-04-03T01:46:39;7.90;56.80
76168;DHT22;64927;48.214;16.378;2023-04-03T01:49:06;7.90;56.70
76168;DHT22;64927;48.214;16.378;2023-04-03T01:51:32;7.90;56.70
76168;DHT22;64927;48.214;16.378;2023-04-03T01:53:58;7.80;57.00
76168;DHT22;64927;48.214;16.378;2023-04-03T01:56:26;7.90;56.70
76168;DHT22;64927;48.214;16.378;2023-04-03T01:58:52;7.90;56.40
76168;DHT22;64927;48.214;16.378;2023-04-03T02:01:18;7.90;56.70
76168;DHT22;64927;48.214;16.378;2023-04-03T02:03:43;7.80;56.70
76168;DHT22;64927;48.214;16.378;2023-04-03T02:06:09;7.60;57.10
76168;DHT22;64927;48.214;16.378;2023-04-03T02:08:35;7.70;57.20
76168;DHT22;64927;48.214;16.378;2023-04-03T02:11:03;7.80;57.30
76168;DHT22;64927;48.214;16.378;2023-04-03T02:13:29;7.80;57.40
76168;DHT22;64927;48.214;16.378;2023-04-03T02:15:54;7.90;57.30
76168;DHT22;64927;48.214;16.378;2023-04-03T02:18:22;7.80;58.30
76168;DHT22;64927;48.214;16.378;2023-04-03T02:20:48;7.80;57.40
76168;DHT22;64927;48.214;16.378;2023-04-03T02:23:14;7.70;57.50
76168;DHT22;64927;48.214;16.378;2023-04-03T02:25:40;7.50;57.90
76168;DHT22;64927;48.214;16.378;2023-04-03T02:28:06;7.60;57.80
76168;DHT22;64927;48.214;16.378;2023-04-03T02:30:31;7.60;58.10
76168;DHT22;64927;48.214;16.378;2023-04-03T02:32:57;7.70;57.90
76168;DHT22;64927;48.214;16.378;2023-04-03T02:35:23;7.80;57.80
76168;DHT22;64927;48.214;16.378;2023-04-03T02:37:48;7.70;57.70
76168;DHT22;64927;48.214;16.378;2023-04-03T02:40:14;7.70;58.20
76168;DHT22;64927;48.214;16.378;2023-04-03T02:42:42;7.70;58.40
76168;DHT22;64927;48.214;16.378;2023-04-03T02:45:08;7.70;58.70
76168;DHT22;64927;48.214;16.378;2023-04-03T02:47:34;7.60;58.40
76168;DHT22;64927;48.214;16.378;2023-04-03T02:50:02;7.60;58.70
76168;DHT22;64927;48.214;16.378;2023-04-03T02:52:30;7.70;58.80
76168;DHT22;64927;48.214;16.378;2023-04-03T02:54:56;7.70;59.00
76168;DHT22;64927;48.214;16.378;2023-04-03T02:57:21;7.60;59.00
76168;DHT22;64927;48.214;16.378;2023-04-03T02:59:49;7.70;58.90
76168;DHT22;64927;48.214;16.378;2023-04-03T03:02:14;7.80;58.60
76168;DHT22;64927;48.214;16.378;2023-04-03T03:04:42;7.80;58.10
76168;DHT22;64927;48.214;16.378;2023-04-03T03:07:15;7.80;58.00
76168;DHT22;64927;48.214;16.378;2023-04-03T03:09:41;7.60;58.10
76168;DHT22;64927;48.214;16.378;2023-04-03T03:12:06;7.50;59.60
76168;DHT22;64927;48.214;16.378;2023-04-03T03:14:34;7.40;58.80
76168;DHT22;64927;48.214;16.378;2023-04-03T03:17:00;7.40;59.00
76168;DHT22;64927;48.214;16.378;2023-04-03T03:19:25;7.40;59.00
76168;DHT22;64927;48.214;16.378;2023-04-03T03:21:51;7.50;58.40
76168;DHT22;64927;48.214;16.378;2023-04-03T03:24:19;7.60;58.20
76168;DHT22;64927;48.214;16.378;2023-04-03T03:26:45;7.50;58.30
76168;DHT22;64927;48.214;16.378;2023-04-03T03:29:13;7.70;58.20
76168;DHT22;64927;48.214;16.378;2023-04-03T03:31:41;7.70;57.70
76168;DHT22;64927;48.214;16.378;2023-04-03T03:34:09;7.70;57.50
76168;DHT22;64927;48.214;16.378;2023-04-03T03:36:34;7.60;57.70
76168;DHT22;64927;48.214;16.378;2023-04-03T03:39:00;7.60;58.00
76168;DHT22;64927;48.214;16.378;2023-04-03T03:41:26;7.40;58.30
76168;DHT22;64927;48.214;16.378;2023-04-03T03:43:52;7.50;58.50
76168;DHT22;64927;48.214;16.378;2023-04-03T03:46:17;7.40;58.30
76168;DHT22;64927;48.214;16.378;2023-04-03T03:48:43;7.50;58.50
76168;DHT22;64927;48.214;16.378;2023-04-03T03:51:09;7.50;58.40
76168;DHT22;64927;48.214;16.378;2023-04-03T03:53:34;7.50;58.30
76168;DHT22;64927;48.214;16.378;2023-04-03T03:56:00;7.50;58.10
76168;DHT22;64927;48.214;16.378;2023-04-03T03:58:26;7.40;58.20
76168;DHT22;64927;48.214;16.378;2023-04-03T04:00:54;7.40;58.30
76168;DHT22;64927;48.214;16.378;2023-04-03T04:03:22;7.40;58.30
76168;DHT22;64927;48.214;16.378;2023-04-03T04:05:50;7.30;58.40
76168;DHT22;64927;48.214;16.378;2023-04-03T04:08:16;7.20;58.70
76168;DHT22;64927;48.214;16.378;2023-04-03T04:10:44;7.20;58.70
76168;DHT22;64927;48.214;16.378;2023-04-03T04:13:10;7.30;58.80
76168;DHT22;64927;48.214;16.378;2023-04-03T04:15:38;7.30;58.30
76168;DHT22;64927;48.214;16.378;2023-04-03T04:18:05;7.30;58.60
76168;DHT22;64927;48.214;16.378;2023-04-03T04:20:31;7.50;58.30
76168;DHT22;64927;48.214;16.378;2023-04-03T04:22:57;7.40;58.50
76168;DHT22;64927;48.214;16.378;2023-04-03T04:25:22;7.40;58.70
76168;DHT22;64927;48.214;16.378;2023-04-03T04:27:48;7.40;58.80
76168;DHT22;64927;48.214;16.378;2023-04-03T04:30:16;7.40;58.80
76168;DHT22;64927;48.214;16.378;2023-04-03T04:32:42;7.40;58.90
76168;DHT22;64927;48.214;16.378;2023-04-03T04:35:08;7.30;59.10
76168;DHT22;64927;48.214;16.378;2023-04-03T04:37:35;7.40;59.40
76168;DHT22;64927;48.214;16.378;2023-04-03T04:40:00;7.40;59.20
76168;DHT22;64927;48.214;16.378;2023-04-03T04:42:26;7.20;59.40
76168;DHT22;64927;48.214;16.378;2023-04-03T04:44:51;7.30;59.70
76168;DHT22;64927;48.214;16.378;2023-04-03T04:47:17;7.20;59.20
76168;DHT22;64927;48.214;16.378;2023-04-03T04:49:43;7.20;59.40
76168;DHT22;64927;48.214;16.378;2023-04-03T04:52:09;7.20;59.80
76168;DHT22;64927;48.214;16.378;2023-04-03T04:54:34;7.30;59.50
76168;DHT22;64927;48.214;16.378;2023-04-03T04:57:02;7.30;58.90
76168;DHT22;64927;48.214;16.378;2023-04-03T04:59:30;7.10;59.10
76168;DHT22;64927;48.214;16.378;2023-04-03T05:01:56;7.10;59.00
76168;DHT22;64927;48.214;16.378;2023-04-03T05:04:22;7.20;59.00
76168;DHT22;64927;48.214;16.378;2023-04-03T05:06:49;7.20;58.40
76168;DHT22;64927;48.214;16.378;2023-04-03T05:09:15;7.10;58.50
76168;DHT22;64927;48.214;16.378;2023-04-03T05:11:41;7.10;58.60
76168;DHT22;64927;48.214;16.378;2023-04-03T05:14:07;7.10;58.40
76168;DHT22;64927;48.214;16.378;2023-04-03T05:16:33;7.10;58.60
76168;DHT22;64927;48.214;16.378;2023-04-03T05:19:02;7.20;58.80
76168;DHT22;64927;48.214;16.378;2023-04-03T05:21:28;7.20;58.70
76168;DHT22;64927;48.214;16.378;2023-04-03T05:23:58;7.20;58.70
76168;DHT22;64927;48.214;16.378;2023-04-03T05:26:25;7.20;58.90
76168;DHT22;64927;48.214;16.378;2023-04-03T05:28:51;7.00;58.90
76168;DHT22;64927;48.214;16.378;2023-04-03T05:31:17;7.00;59.30
76168;DHT22;64927;48.214;16.378;2023-04-03T05:33:42;7.10;59.00
76168;DHT22;64927;48.214;16.378;2023-04-03T05:36:11;7.30;58.30
76168;DHT22;64927;48.214;16.378;2023-04-03T05:38:38;7.30;58.20
76168;DHT22;64927;48.214;16.378;2023-04-03T05:41:04;7.30;57.60
76168;DHT22;64927;48.214;16.378;2023-04-03T05:43:30;7.20;58.10
76168;DHT22;64927;48.214;16.378;2023-04-03T05:45:56;7.20;57.90
76168;DHT22;64927;48.214;16.378;2023-04-03T05:48:22;7.20;58.00
76168;DHT22;64927;48.214;16.378;2023-04-03T05:50:50;7.30;58.00
76168;DHT22;64927;48.214;16.378;2023-04-03T05:53:22;7.40;57.20
76168;DHT22;64927;48.214;16.378;2023-04-03T05:55:51;7.60;57.30
76168;DHT22;64927;48.214;16.378;2023-04-03T05:58:17;7.40;57.00
76168;DHT22;64927;48.214;16.378;2023-04-03T06:00:45;7.40;57.00
76168;DHT22;64927;48.214;16.378;2023-04-03T06:03:11;7.50;56.70
76168;DHT22;64927;48.214;16.378;2023-04-03T06:05:37;7.40;56.40
76168;DHT22;64927;48.214;16.378;2023-04-03T06:08:05;7.40;57.30
76168;DHT22;64927;48.214;16.378;2023-04-03T06:10:31;7.20;56.90
76168;DHT22;64927;48.214;16.378;2023-04-03T06:12:56;7.20;57.00
76168;DHT22;64927;48.214;16.378;2023-04-03T06:15:24;7.20;57.10
76168;DHT22;64927;48.214;16.378;2023-04-03T06:17:50;7.00;57.70
76168;DHT22;64927;48.214;16.378;2023-04-03T06:20:16;7.10;58.40
76168;DHT22;64927;48.214;16.378;2023-04-03T06:22:42;7.10;57.90
76168;DHT22;64927;48.214;16.378;2023-04-03T06:25:08;7.20;56.90
76168;DHT22;64927;48.214;16.378;2023-04-03T06:27:34;7.10;56.80
76168;DHT22;64927;48.214;16.378;2023-04-03T06:30:00;7.20;56.70
76168;DHT22;64927;48.214;16.378;2023-04-03T06:32:26;7.20;55.70
76168;DHT22;64927;48.214;16.378;2023-04-03T06:34:51;7.10;55.80
76168;DHT22;64927;48.214;16.378;2023-04-03T06:37:21;7.20;55.70
76168;DHT22;64927;48.214;16.378;2023-04-03T06:39:47;7.20;55.90
76168;DHT22;64927;48.214;16.378;2023-04-03T06:42:13;7.30;56.20
76168;DHT22;64927;48.214;16.378;2023-04-03T06:44:39;7.20;55.10
76168;DHT22;64927;48.214;16.378;2023-04-03T06:47:05;7.30;55.20
76168;DHT22;64927;48.214;16.378;2023-04-03T06:49:33;7.40;54.40
76168;DHT22;64927;48.214;16.378;2023-04-03T06:52:02;7.30;54.20
76168;DHT22;64927;48.214;16.378;2023-04-03T06:54:28;7.10;54.40
76168;DHT22;64927;48.214;16.378;2023-04-03T06:56:56;7.30;54.30
76168;DHT22;64927;48.214;16.378;2023-04-03T06:59:22;7.10;53.80
76168;DHT22;64927;48.214;16.378;2023-04-03T07:01:48;6.90;54.50
76168;DHT22;64927;48.214;16.378;2023-04-03T07:04:14;7.00;54.60
76168;DHT22;64927;48.214;16.378;2023-04-03T07:06:40;7.10;54.30
76168;DHT22;64927;48.214;16.378;2023-04-03T07:09:07;7.00;54.00
76168;DHT22;64927;48.214;16.378;2023-04-03T07:11:33;6.90;54.60
76168;DHT22;64927;48.214;16.378;2023-04-03T07:13:58;6.90;54.60
76168;DHT22;64927;48.214;16.378;2023-04-03T07:16:26;7.00;54.40
76168;DHT22;64927;48.214;16.378;2023-04-03T07:18:52;7.00;54.10
76168;DHT22;64927;48.214;16.378;2023-04-03T07:21:17;7.20;53.60
76168;DHT22;64927;48.214;16.378;2023-04-03T07:23:43;7.30;53.10
76168;DHT22;64927;48.214;16.378;2023-04-03T07:26:09;7.20;54.10
76168;DHT22;64927;48.214;16.378;2023-04-03T07:28:35;7.30;53.10
76168;DHT22;64927;48.214;16.378;2023-04-03T07:31:05;7.50;52.70
76168;DHT22;64927;48.214;16.378;2023-04-03T07:33:34;7.60;52.10
76168;DHT22;64927;48.214;16.378;2023-04-03T07:36:00;7.90;51.60
76168;DHT22;64927;48.214;16.378;2023-04-03T07:38:26;7.80;51.00
76168;DHT22;64927;48.214;16.378;2023-04-03T07:40:52;7.80;51.00
76168;DHT22;64927;48.214;16.378;2023-04-03T07:43:19;7.90;49.40
76168;DHT22;64927;48.214;16.378;2023-04-03T07:45:46;8.10;49.20
76168;DHT22;64927;48.214;16.378;2023-04-03T07:48:18;8.10;49.20
76168;DHT22;64927;48.214;16.378;2023-04-03T07:50:44;8.30;49.20
76168;DHT22;64927;48.214;16.378;2023-04-03T07:53:10;9.00;48.50
76168;DHT22;64927;48.214;16.378;2023-04-03T07:55:36;9.50;46.90
76168;DHT22;64927;48.214;16.378;2023-04-03T07:58:12;9.70;46.30
76168;DHT22;64927;48.214;16.378;2023-04-03T08:00:40;9.90;44.90
76168;DHT22;64927;48.214;16.378;2023-04-03T08:03:06;10.10;44.50
76168;DHT22;64927;48.214;16.378;2023-04-03T08:05:37;9.60;44.20
76168;DHT22;64927;48.214;16.378;2023-04-03T08:08:03;9.40;44.90
76168;DHT22;64927;48.214;16.378;2023-04-03T08:10:30;9.30;45.10
76168;DHT22;64927;48.214;16.378;2023-04-03T08:12:56;9.50;45.20
76168;DHT22;64927;48.214;16.378;2023-04-03T08:15:24;9.50;44.90
76168;DHT22;64927;48.214;16.378;2023-04-03T08:17:49;9.60;44.80
76168;DHT22;64927;48.214;16.378;2023-04-03T08:20:17;9.40;44.60
76168;DHT22;64927;48.214;16.378;2023-04-03T08:22:43;9.40;44.20
76168;DHT22;64927;48.214;16.378;2023-04-03T08:25:11;9.40;44.20
76168;DHT22;64927;48.214;16.378;2023-04-03T08:27:39;9.50;43.80
76168;DHT22;64927;48.214;16.378;2023-04-03T08:30:06;9.20;44.50
76168;DHT22;64927;48.214;16.378;2023-04-03T08:32:33;9.10;45.10
76168;DHT22;64927;48.214;16.378;2023-04-03T08:35:00;9.20;44.80
76168;DHT22;64927;48.214;16.378;2023-04-03T08:37:25;9.20;44.40
76168;DHT22;64927;48.214;16.378;2023-04-03T08:39:52;8.90;45.40
76168;DHT22;64927;48.214;16.378;2023-04-03T08:42:28;8.90;44.60
76168;DHT22;64927;48.214;16.378;2023-04-03T08:45:03;9.00;43.60
76168;DHT22;64927;48.214;16.378;2023-04-03T08:47:49;9.30;43.60
76168;DHT22;64927;48.214;16.378;2023-04-03T08:50:31;9.60;43.50
76168;DHT22;64927;48.214;16.378;2023-04-03T08:52:59;9.90;42.50
76168;DHT22;64927;48.214;16.378;2023-04-03T08:55:37;9.50;41.10
76168;DHT22;64927;48.214;16.378;2023-04-03T08:58:26;9.80;41.60
76168;DHT22;64927;48.214;16.378;2023-04-03T09:03:42;9.60;39.90
76168;DHT22;64927;48.214;16.378;2023-04-03T09:08:58;9.20;41.60
76168;DHT22;64927;48.214;16.378;2023-04-03T09:11:54;9.00;40.90
76168;DHT22;64927;48.214;16.378;2023-04-03T09:14:39;9.00;41.30
76168;DHT22;64927;48.214;16.378;2023-04-03T09:17:36;8.80;41.80
76168;DHT22;64927;48.214;16.378;2023-04-03T09:22:45;8.60;42.50
76168;DHT22;64927;48.214;16.378;2023-04-03T09:25:17;8.60;42.60
76168;DHT22;64927;48.214;16.378;2023-04-03T09:27:46;9.10;41.40
76168;DHT22;64927;48.214;16.378;2023-04-03T09:30:16;9.20;40.60
76168;DHT22;64927;48.214;16.378;2023-04-03T09:32:46;8.70;41.40
76168;DHT22;64927;48.214;16.378;2023-04-03T09:35:25;8.50;41.80
76168;DHT22;64927;48.214;16.378;2023-04-03T09:40:38;8.80;40.70
76168;DHT22;64927;48.214;16.378;2023-04-03T09:43:30;9.10;40.00
76168;DHT22;64927;48.214;16.378;2023-04-03T09:46:17;9.00;40.70
76168;DHT22;64927;48.214;16.378;2023-04-03T09:48:57;9.00;41.30
76168;DHT22;64927;48.214;16.378;2023-04-03T09:51:30;8.80;41.70
76168;DHT22;64927;48.214;16.378;2023-04-03T09:53:57;8.50;41.90
76168;DHT22;64927;48.214;16.378;2023-04-03T09:56:28;8.50;41.80
76168;DHT22;64927;48.214;16.378;2023-04-03T10:01:39;8.10;41.00
76168;DHT22;64927;48.214;16.378;2023-04-03T10:04:19;8.30;41.10
76168;DHT22;64927;48.214;16.378;2023-04-03T10:06:53;8.30;41.60
76168;DHT22;64927;48.214;16.378;2023-04-03T10:09:31;8.40;41.20
76168;DHT22;64927;48.214;16.378;2023-04-03T10:12:04;8.20;41.30
76168;DHT22;64927;48.214;16.378;2023-04-03T10:14:35;7.90;42.20
76168;DHT22;64927;48.214;16.378;2023-04-03T10:19:57;8.10;41.70
76168;DHT22;64927;48.214;16.378;2023-04-03T10:28:23;8.80;39.70
76168;DHT22;64927;48.214;16.378;2023-04-03T10:39:17;8.70;39.00
76168;DHT22;64927;48.214;16.378;2023-04-03T10:47:44;8.70;38.50
76168;DHT22;64927;48.214;16.378;2023-04-03T10:50:45;8.70;38.20
76168;DHT22;64927;48.214;16.378;2023-04-03T10:59:16;9.40;36.00
76168;DHT22;64927;48.214;16.378;2023-04-03T11:01:56;9.40;34.80
76168;DHT22;64927;48.214;16.378;2023-04-03T11:04:26;9.20;34.80
76168;DHT22;64927;48.214;16.378;2023-04-03T11:07:55;9.40;35.30
76168;DHT22;64927;48.214;16.378;2023-04-03T11:11:04;9.20;35.80
76168;DHT22;64927;48.214;16.378;2023-04-03T11:13:43;8.60;38.20
76168;DHT22;64927;48.214;16.378;2023-04-03T11:16:16;8.50;38.10
76168;DHT22;64927;48.214;16.378;2023-04-03T11:19:03;8.40;38.10
76168;DHT22;64927;48.214;16.378;2023-04-03T11:22:25;8.10;38.20
76168;DHT22;64927;48.214;16.378;2023-04-03T11:24:39;8.00;38.60
76168;DHT22;64927;48.214;16.378;2023-04-03T11:27:28;8.30;38.70
76168;DHT22;64927;48.214;16.378;2023-04-03T11:29:58;8.60;38.00
76168;DHT22;64927;48.214;16.378;2023-04-03T11:35:55;8.90;37.20
76168;DHT22;64927;48.214;16.378;2023-04-03T11:38:30;8.90;36.50
76168;DHT22;64927;48.214;16.378;2023-04-03T11:41:03;8.80;36.90
76168;DHT22;64927;48.214;16.378;2023-04-03T11:43:33;8.90;35.90
76168;DHT22;64927;48.214;16.378;2023-04-03T11:46:04;9.00;35.70
76168;DHT22;64927;48.214;16.378;2023-04-03T11:53:42;9.00;34.60
76168;DHT22;64927;48.214;16.378;2023-04-03T12:01:58;8.70;35.90
76168;DHT22;64927;48.214;16.378;2023-04-03T12:04:26;8.20;35.90
76168;DHT22;64927;48.214;16.378;2023-04-03T12:07:33;8.00;36.40
76168;DHT22;64927;48.214;16.378;2023-04-03T12:09:57;8.10;36.60
76168;DHT22;64927;48.214;16.378;2023-04-03T12:12:26;8.40;35.90
76168;DHT22;64927;48.214;16.378;2023-04-03T12:14:55;8.10;36.70
76168;DHT22;64927;48.214;16.378;2023-04-03T12:17:26;8.30;36.50
76168;DHT22;64927;48.214;16.378;2023-04-03T12:19:53;8.20;35.80
76168;DHT22;64927;48.214;16.378;2023-04-03T12:22:22;8.40;35.70
76168;DHT22;64927;48.214;16.378;2023-04-03T12:24:52;8.40;34.90
76168;DHT22;64927;48.214;16.378;2023-04-03T12:27:24;8.70;34.20
76168;DHT22;64927;48.214;16.378;2023-04-03T12:45:56;8.20;34.70
76168;DHT22;64927;48.214;16.378;2023-04-03T12:48:30;8.30;34.20
76168;DHT22;64927;48.214;16.378;2023-04-03T12:51:04;8.10;34.00
76168;DHT22;64927;48.214;16.378;2023-04-03T12:53:35;8.10;34.60
76168;DHT22;64927;48.214;16.378;2023-04-03T12:56:24;8.10;34.80
76168;DHT22;64927;48.214;16.378;2023-04-03T12:59:26;8.20;34.60
76168;DHT22;64927;48.214;16.378;2023-04-03T13:01:59;8.20;35.50
76168;DHT22;64927;48.214;16.378;2023-04-03T13:04:27;8.10;34.30
76168;DHT22;64927;48.214;16.378;2023-04-03T13:06:53;8.20;34.60
76168;DHT22;64927;48.214;16.378;2023-04-03T13:09:25;8.20;34.60
76168;DHT22;64927;48.214;16.378;2023-04-03T13:14:37;8.40;34.10
76168;DHT22;64927;48.214;16.378;2023-04-03T13:17:15;8.40;33.70
76168;DHT22;64927;48.214;16.378;2023-04-03T13:19:45;8.40;33.60
76168;DHT22;64927;48.214;16.378;2023-04-03T13:22:33;8.50;33.20
76168;DHT22;64927;48.214;16.378;2023-04-03T13:25:07;8.80;33.20
76168;DHT22;64927;48.214;16.378;2023-04-03T13:27:35;9.00;33.30
76168;DHT22;64927;48.214;16.378;2023-04-03T13:30:02;9.20;32.80
76168;DHT22;64927;48.214;16.378;2023-04-03T13:32:34;9.10;33.20
76168;DHT22;64927;48.214;16.378;2023-04-03T13:35:23;9.00;33.20
76168;DHT22;64927;48.214;16.378;2023-04-03T13:37:56;8.80;33.40
76168;DHT22;64927;48.214;16.378;2023-04-03T13:40:27;8.80;33.70
76168;DHT22;64927;48.214;16.378;2023-04-03T13:43:14;8.80;33.70
76168;DHT22;64927;48.214;16.378;2023-04-03T13:45:57;8.60;33.90
76168;DHT22;64927;48.214;16.378;2023-04-03T13:48:26;8.90;33.60
76168;DHT22;64927;48.214;16.378;2023-04-03T13:51:01;8.70;33.60
76168;DHT22;64927;48.214;16.378;2023-04-03T13:53:30;8.50;33.60
76168;DHT22;64927;48.214;16.378;2023-04-03T13:56:05;8.20;34.60
76168;DHT22;64927;48.214;16.378;2023-04-03T13:58:32;8.20;34.90
76168;DHT22;64927;48.214;16.378;2023-04-03T14:03:45;8.30;34.70
76168;DHT22;64927;48.214;16.378;2023-04-03T14:06:14;8.20;35.40
76168;DHT22;64927;48.214;16.378;2023-04-03T14:08:41;8.40;34.30
76168;DHT22;64927;48.214;16.378;2023-04-03T14:11:13;8.50;34.50
76168;DHT22;64927;48.214;16.378;2023-04-03T14:13:39;8.70;34.90
76168;DHT22;64927;48.214;16.378;2023-04-03T14:16:05;8.90;34.10
76168;DHT22;64927;48.214;16.378;2023-04-03T14:18:31;8.90;33.40
76168;DHT22;64927;48.214;16.378;2023-04-03T14:20:59;8.70;34.00
76168;DHT22;64927;48.214;16.378;2023-04-03T14:23:25;8.50;33.50
76168;DHT22;64927;48.214;16.378;2023-04-03T14:25:51;8.40;34.10
76168;DHT22;64927;48.214;16.378;2023-04-03T14:28:21;8.20;35.10
76168;DHT22;64927;48.214;16.378;2023-04-03T14:30:49;8.40;34.70
76168;DHT22;64927;48.214;16.378;2023-04-03T14:33:18;8.10;35.20
76168;DHT22;64927;48.214;16.378;2023-04-03T14:35:44;8.10;35.40
76168;DHT22;64927;48.214;16.378;2023-04-03T14:38:27;8.30;35.60
76168;DHT22;64927;48.214;16.378;2023-04-03T14:40:56;8.30;35.50
76168;DHT22;64927;48.214;16.378;2023-04-03T14:43:22;8.70;35.80
76168;DHT22;64927;48.214;16.378;2023-04-03T14:45:49;8.50;35.00
76168;DHT22;64927;48.214;16.378;2023-04-03T14:48:26;8.60;35.20
76168;DHT22;64927;48.214;16.378;2023-04-03T14:50:55;8.50;34.30
76168;DHT22;64927;48.214;16.378;2023-04-03T14:53:21;8.30;34.40
76168;DHT22;64927;48.214;16.378;2023-04-03T14:55:53;8.60;34.30
76168;DHT22;64927;48.214;16.378;2023-04-03T14:58:20;8.40;33.80
76168;DHT22;64927;48.214;16.378;2023-04-03T15:00:47;8.40;34.00
76168;DHT22;64927;48.214;16.378;2023-04-03T15:03:18;8.00;34.30
76168;DHT22;64927;48.214;16.378;2023-04-03T15:05:46;8.10;34.10
76168;DHT22;64927;48.214;16.378;2023-04-03T15:08:18;8.00;34.30
76168;DHT22;64927;48.214;16.378;2023-04-03T15:10:44;8.00;34.20
76168;DHT22;64927;48.214;16.378;2023-04-03T15:13:12;8.20;33.90
76168;DHT22;64927;48.214;16.378;2023-04-03T15:15:40;8.20;33.50
76168;DHT22;64927;48.214;16.378;2023-04-03T15:18:14;8.20;33.40
76168;DHT22;64927;48.214;16.378;2023-04-03T15:20:40;8.20;33.00
76168;DHT22;64927;48.214;16.378;2023-04-03T15:23:12;8.20;33.40
76168;DHT22;64927;48.214;16.378;2023-04-03T15:25:38;8.10;33.40
76168;DHT22;64927;48.214;16.378;2023-04-03T15:28:05;8.10;33.30
76168;DHT22;64927;48.214;16.378;2023-04-03T15:30:31;8.10;33.90
76168;DHT22;64927;48.214;16.378;2023-04-03T15:32:57;7.90;34.10
76168;DHT22;64927;48.214;16.378;2023-04-03T15:35:25;8.20;34.00
76168;DHT22;64927;48.214;16.378;2023-04-03T15:37:50;8.10;33.60
76168;DHT22;64927;48.214;16.378;2023-04-03T15:40:16;8.10;35.20
76168;DHT22;64927;48.214;16.378;2023-04-03T15:42:42;8.00;34.60
76168;DHT22;64927;48.214;16.378;2023-04-03T15:45:08;7.70;34.90
76168;DHT22;64927;48.214;16.378;2023-04-03T15:47:34;7.70;35.20
76168;DHT22;64927;48.214;16.378;2023-04-03T15:50:00;7.80;35.00
76168;DHT22;64927;48.214;16.378;2023-04-03T15:52:26;7.80;34.80
76168;DHT22;64927;48.214;16.378;2023-04-03T15:54:54;7.90;34.30
76168;DHT22;64927;48.214;16.378;2023-04-03T15:57:20;7.80;34.40
76168;DHT22;64927;48.214;16.378;2023-04-03T15:59:45;7.80;34.80
76168;DHT22;64927;48.214;16.378;2023-04-03T16:02:13;7.80;34.60
76168;DHT22;64927;48.214;16.378;2023-04-03T16:04:39;7.90;34.90
76168;DHT22;64927;48.214;16.378;2023-04-03T16:07:05;7.60;35.10
76168;DHT22;64927;48.214;16.378;2023-04-03T16:09:32;7.40;35.10
76168;DHT22;64927;48.214;16.378;2023-04-03T16:11:58;7.40;35.40
76168;DHT22;64927;48.214;16.378;2023-04-03T16:14:26;7.50;35.30
76168;DHT22;64927;48.214;16.378;2023-04-03T16:16:53;7.40;34.60
76168;DHT22;64927;48.214;16.378;2023-04-03T16:19:19;7.40;34.50
76168;DHT22;64927;48.214;16.378;2023-04-03T16:21:45;7.30;35.00
76168;DHT22;64927;48.214;16.378;2023-04-03T16:24:12;7.30;35.20
76168;DHT22;64927;48.214;16.378;2023-04-03T16:26:40;7.10;35.70
76168;DHT22;64927;48.214;16.378;2023-04-03T16:29:05;7.20;36.00
76168;DHT22;64927;48.214;16.378;2023-04-03T16:31:32;7.30;35.30
76168;DHT22;64927;48.214;16.378;2023-04-03T16:33:58;7.10;35.70
76168;DHT22;64927;48.214;16.378;2023-04-03T16:36:25;7.10;36.10
76168;DHT22;64927;48.214;16.378;2023-04-03T16:38:53;7.10;36.20
76168;DHT22;64927;48.214;16.378;2023-04-03T16:41:22;7.20;36.30
76168;DHT22;64927;48.214;16.378;2023-04-03T16:43:47;7.20;37.30
76168;DHT22;64927;48.214;16.378;2023-04-03T16:46:13;7.20;35.80
76168;DHT22;64927;48.214;16.378;2023-04-03T16:48:39;7.20;36.00
76168;DHT22;64927;48.214;16.378;2023-04-03T16:51:05;7.10;36.20
76168;DHT22;64927;48.214;16.378;2023-04-03T16:53:30;7.10;37.10
76168;DHT22;64927;48.214;16.378;2023-04-03T16:55:58;7.10;36.10
76168;DHT22;64927;48.214;16.378;2023-04-03T16:58:25;7.10;36.30
76168;DHT22;64927;48.214;16.378;2023-04-03T17:00:51;7.10;36.20
76168;DHT22;64927;48.214;16.378;2023-04-03T17:03:19;7.00;36.30
76168;DHT22;64927;48.214;16.378;2023-04-03T17:05:48;7.10;36.00